Watersmeet, MI (49969)

9:35 AM CDT on May 05, 2015 (GMT -0500)
RAWS | | Change Station
CLOSE
Current Station
Personal Weather Station
Location: Watersmeet, MI
Elevation: 1604 ft
Nearby Weather Stations

Elev 1604 ft 46.27 °N, 89.17 °W | Updated 58 minutes ago

Clear
Clear
59 °F
Feels Like 59 °F
N
2
Wind Variable Wind from SSW
Gusts 4.0 mph

Today
High -- | Low -- °F
--% Chance of Precip.
Yesterday
High -- | Low -- °F
Precip. -- in
5:37 AM 8:10 PM
Full, 98% visible
Pressure 30.33 in
Visibility 10.0 miles
Clouds Clear
Dew Point 31 °F
Humidity 35%
Rainfall in
Snow Depth Not available.
UV 4 out of 12
Pollen 10.80 out of 12
Air Quality Not available.
Flu Activity Regional
METAR KLNL 051415Z AUTO 15004KT 10SM CLR 16/M03 A3033 RMK AO2 T01571027

More Conditions Fewer Conditions

Pressure 30.33 in
Visibility 10.0 miles
Clouds Clear
Dew Point 31 °F
Humidity 35%
Rainfall in
Snow Depth Not available.
UV 4 out of 12
Pollen 10.80 out of 12
Air Quality Not available.
Flu Activity Regional
METAR KLNL 051415Z AUTO 15004KT 10SM CLR 16/M03 A3033 RMK AO2 T01571027

More Conditions Fewer Conditions

10-Day Weather Forecast

Almanac

Astronomy

May. 05, 2015 Rise Set
Actual Time
Civil Twilight
Nautical Twilight
Astronomical Twilight
Moon
Length of Visible Light
Length of Day
Tomorrow will be .
, % of the Moon is Illuminated

Today's Extremes

State Highs State Lows

Community

WunderPhotos

Upload Photos

1,818,903 photos uploaded!

WunderBlogs® & News

Nearby

Air Quality

  Air Quality AQ Index Pollutant
Not available.

Snow Depth

Station Depth Elevation

Earthquake Activity

City Distance Mag. Time & Date
Minimum magnitude displayed is 2.5.

Coastal Water Temperatures

Place Temperature

Stations

Nearby Weather Stations

Station Location Temp. Windchill Dew Point Humidity Wind Precip. Elev Updated Type